createdAt,value
2019-03-01T00:00:29.722Z,9.86
2019-03-01T00:03:00.264Z,9.89
2019-03-01T00:06:17.185Z,9.90
2019-03-01T00:09:40.802Z,9.91
2019-03-01T00:13:12.494Z,9.91
2019-03-01T00:16:39.150Z,9.92
2019-03-01T00:20:11.838Z,9.92
2019-03-01T00:23:24.708Z,9.94
2019-03-01T00:26:29.596Z,9.93
2019-03-01T00:29:37.158Z,9.94
2019-03-01T00:32:55.904Z,9.94
2019-03-01T00:36:42.942Z,9.93
2019-03-01T00:39:56.441Z,9.93
2019-03-01T00:43:05.452Z,9.96
2019-03-01T00:45:35.998Z,9.97
2019-03-01T00:48:06.475Z,9.98
2019-03-01T00:50:36.951Z,9.98
2019-03-01T00:53:07.481Z,9.96
2019-03-01T00:55:37.952Z,9.94
2019-03-01T00:58:08.444Z,9.99
2019-03-01T01:00:44.372Z,9.99
2019-03-01T01:03:14.858Z,9.98
2019-03-01T01:05:45.391Z,9.95
2019-03-01T01:08:15.907Z,9.95
2019-03-01T01:10:46.403Z,9.95
2019-03-01T01:13:16.909Z,9.97
2019-03-01T01:15:47.498Z,9.98
2019-03-01T01:18:18.278Z,10.00
2019-03-01T01:20:49.042Z,10.01
2019-03-01T01:23:19.607Z,10.00
2019-03-01T01:25:50.367Z,10.03
2019-03-01T01:28:20.918Z,10.03
2019-03-01T01:30:51.443Z,9.97
2019-03-01T01:33:21.915Z,9.97
2019-03-01T01:35:52.416Z,9.92
2019-03-01T01:38:22.991Z,9.94
2019-03-01T01:40:53.502Z,9.92
2019-03-01T01:43:24.245Z,9.86
2019-03-01T01:45:55.301Z,9.85
2019-03-01T01:48:26.058Z,9.86
2019-03-01T01:50:56.596Z,9.84
2019-03-01T01:53:27.123Z,9.83
2019-03-01T01:55:57.693Z,9.84
2019-03-01T01:58:28.205Z,9.86
2019-03-01T02:00:58.974Z,9.84
2019-03-01T02:03:29.558Z,9.83
2019-03-01T02:06:00.139Z,9.83
2019-03-01T02:08:30.857Z,9.79
2019-03-01T02:11:01.645Z,9.75
2019-03-01T02:13:32.157Z,9.79
2019-03-01T02:16:02.691Z,9.79
2019-03-01T02:18:33.191Z,9.75
2019-03-01T02:21:03.956Z,9.78
2019-03-01T02:23:34.479Z,9.76
2019-03-01T02:26:05.008Z,9.76
2019-03-01T02:28:35.615Z,9.67
2019-03-01T02:31:07.508Z,9.69
2019-03-01T02:33:38.054Z,9.66
2019-03-01T02:36:08.565Z,9.68
2019-03-01T02:38:39.177Z,9.70
2019-03-01T02:41:09.676Z,9.66
2019-03-01T02:43:40.742Z,9.62
2019-03-01T02:46:11.292Z,9.63
2019-03-01T02:48:41.802Z,9.61
2019-03-01T02:51:12.300Z,9.61
2019-03-01T02:53:43.088Z,9.61
2019-03-01T02:56:13.678Z,9.62
2019-03-01T02:58:44.233Z,9.61
2019-03-01T03:01:15.070Z,9.57
2019-03-01T03:03:45.823Z,9.60
2019-03-01T03:06:33.778Z,9.59
2019-03-01T03:09:06.717Z,9.59
2019-03-01T03:11:37.266Z,9.60
2019-03-01T03:14:07.821Z,9.57
2019-03-01T03:16:38.350Z,9.58
2019-03-01T03:19:08.942Z,9.60
2019-03-01T03:21:39.671Z,9.63
2019-03-01T03:24:10.180Z,9.59
2019-03-01T03:26:40.747Z,9.53
2019-03-01T03:29:11.397Z,9.52
2019-03-01T03:31:41.987Z,9.53
2019-03-01T03:34:12.545Z,9.52
2019-03-01T03:36:43.550Z,9.53
2019-03-01T03:39:14.071Z,9.49
2019-03-01T03:41:44.597Z,9.48
2019-03-01T03:44:15.081Z,9.50
2019-03-01T03:46:45.601Z,9.53
2019-03-01T03:49:16.145Z,9.52
2019-03-01T03:51:46.732Z,9.55
2019-03-01T03:54:17.188Z,9.51
2019-03-01T03:56:47.744Z,9.56
2019-03-01T03:59:18.227Z,9.59
2019-03-01T04:01:48.891Z,9.60
2019-03-01T04:04:19.443Z,9.59
2019-03-01T04:06:50.059Z,9.57
2019-03-01T04:09:20.620Z,9.61
2019-03-01T04:11:51.127Z,9.57
2019-03-01T04:14:21.903Z,9.56
2019-03-01T04:16:52.409Z,9.58
2019-03-01T04:19:22.938Z,9.56
2019-03-01T04:21:53.744Z,9.56
2019-03-01T04:24:24.285Z,9.55
2019-03-01T04:26:55.194Z,9.59
2019-03-01T04:29:25.798Z,9.60
2019-03-01T04:31:56.634Z,9.59
2019-03-01T04:34:27.202Z,9.62
2019-03-01T04:36:57.787Z,9.62
2019-03-01T04:39:28.611Z,9.59
2019-03-01T04:41:59.415Z,9.61
2019-03-01T04:44:29.944Z,9.58
2019-03-01T04:47:00.454Z,9.57
2019-03-01T04:49:31.066Z,9.58
2019-03-01T04:52:21.679Z,9.57
2019-03-01T04:54:52.239Z,9.56
2019-03-01T04:57:22.827Z,9.57
2019-03-01T04:59:53.367Z,9.58
2019-03-01T05:02:23.886Z,9.57
2019-03-01T05:04:54.395Z,9.53
2019-03-01T05:07:25.174Z,9.54
2019-03-01T05:09:55.727Z,9.54
2019-03-01T05:12:26.231Z,9.55
2019-03-01T05:14:56.733Z,9.54
2019-03-01T05:17:27.249Z,9.60
2019-03-01T05:19:57.771Z,9.59
2019-03-01T05:22:28.320Z,9.57
2019-03-01T05:24:58.862Z,9.56
2019-03-01T05:27:29.389Z,9.60
2019-03-01T05:29:59.947Z,9.62
2019-03-01T05:32:30.602Z,9.59
2019-03-01T05:35:01.122Z,9.59
2019-03-01T05:37:31.937Z,9.57
2019-03-01T05:40:02.713Z,9.58
2019-03-01T05:42:33.786Z,9.60
2019-03-01T05:45:04.975Z,9.63
2019-03-01T05:47:35.762Z,9.63
2019-03-01T05:50:07.186Z,9.64
2019-03-01T05:52:37.682Z,9.65
2019-03-01T05:55:08.224Z,9.66
2019-03-01T05:57:59.251Z,9.69
2019-03-01T06:00:29.831Z,9.70
2019-03-01T06:03:40.031Z,9.69
2019-03-01T06:06:11.181Z,9.71
2019-03-01T06:09:20.678Z,9.68
2019-03-01T06:12:32.639Z,9.66
2019-03-01T06:15:30.196Z,9.64
2019-03-01T06:19:13.392Z,9.66
2019-03-01T06:22:49.158Z,9.66
2019-03-01T06:25:58.406Z,9.62
2019-03-01T06:29:22.538Z,9.60
2019-03-01T06:32:07.617Z,9.57
2019-03-01T06:35:39.666Z,9.55
2019-03-01T06:39:45.720Z,9.59
2019-03-01T06:43:13.375Z,9.53
2019-03-01T06:46:40.168Z,9.52
2019-03-01T06:49:16.447Z,9.52
2019-03-01T06:51:47.281Z,9.49
2019-03-01T06:54:17.797Z,9.49
2019-03-01T06:56:48.350Z,9.50
2019-03-01T06:59:18.838Z,9.49
2019-03-01T07:01:49.718Z,9.50
2019-03-01T07:04:21.348Z,9.51
2019-03-01T07:06:51.923Z,9.48
2019-03-01T07:09:22.438Z,9.44
2019-03-01T07:11:52.967Z,9.48
2019-03-01T07:14:23.734Z,9.46
2019-03-01T07:16:54.847Z,9.45
2019-03-01T07:19:25.950Z,9.46
2019-03-01T07:21:56.562Z,9.46
2019-03-01T07:24:27.055Z,9.45
2019-03-01T07:26:57.584Z,9.45
2019-03-01T07:29:28.091Z,9.49
2019-03-01T07:31:58.656Z,9.46
2019-03-01T07:34:29.182Z,9.49
2019-03-01T07:37:00.020Z,9.50
2019-03-01T07:39:30.524Z,9.48
2019-03-01T07:42:01.111Z,9.49
2019-03-01T07:44:31.632Z,9.50
2019-03-01T07:47:02.419Z,9.51
2019-03-01T07:49:32.918Z,9.51
2019-03-01T07:52:05.036Z,9.49
2019-03-01T07:54:35.625Z,9.47
2019-03-01T07:57:06.098Z,9.44
2019-03-01T07:59:38.123Z,9.45
2019-03-01T08:02:08.861Z,9.42
2019-03-01T08:04:39.351Z,9.45
2019-03-01T08:07:09.890Z,9.44
2019-03-01T08:09:41.341Z,9.43
2019-03-01T08:12:13.231Z,9.40
2019-03-01T08:14:43.742Z,9.39
2019-03-01T08:17:14.477Z,9.40
2019-03-01T08:19:45.755Z,9.44
2019-03-01T08:22:16.543Z,9.42
2019-03-01T08:24:47.587Z,9.43
2019-03-01T08:27:18.062Z,9.41
2019-03-01T08:29:48.549Z,9.37
2019-03-01T08:32:19.077Z,9.32
2019-03-01T08:34:49.931Z,9.23
2019-03-01T08:37:21.838Z,9.20
2019-03-01T08:39:52.376Z,9.04
2019-03-01T08:42:22.872Z,8.99
2019-03-01T08:44:54.648Z,8.90
2019-03-01T08:47:25.945Z,8.90
2019-03-01T08:49:56.401Z,8.83
2019-03-01T08:52:26.881Z,8.77
2019-03-01T08:55:00.169Z,8.75
2019-03-01T08:57:29.662Z,8.70
2019-03-01T09:00:00.664Z,8.66
2019-03-01T09:02:31.419Z,8.67
2019-03-01T09:05:05.210Z,8.72
2019-03-01T09:07:35.217Z,8.66
2019-03-01T09:10:06.659Z,8.62
2019-03-01T09:12:37.207Z,8.60
2019-03-01T09:15:09.983Z,8.56
2019-03-01T09:17:42.336Z,8.56
2019-03-01T09:20:15.281Z,8.58
2019-03-01T09:22:45.756Z,8.58
2019-03-01T09:25:16.857Z,8.58
2019-03-01T09:27:47.478Z,8.48
2019-03-01T09:30:21.619Z,8.50
2019-03-01T09:32:52.177Z,8.48
2019-03-01T09:35:43.169Z,8.47
2019-03-01T09:38:12.452Z,8.46
2019-03-01T09:40:42.942Z,8.49
2019-03-01T09:43:13.465Z,8.45
2019-03-01T09:45:45.613Z,8.50
2019-03-01T09:48:16.442Z,8.55
2019-03-01T09:50:47.048Z,8.48
2019-03-01T09:53:17.533Z,8.55
2019-03-01T09:55:48.012Z,8.55
2019-03-01T09:58:18.784Z,8.54
2019-03-01T10:00:56.645Z,8.55
2019-03-01T10:03:27.379Z,8.55
2019-03-01T10:05:58.109Z,8.53
2019-03-01T10:08:28.671Z,8.58
2019-03-01T10:10:59.443Z,8.57
2019-03-01T10:13:30.506Z,8.59
2019-03-01T10:16:01.056Z,8.66
2019-03-01T10:18:31.576Z,8.72
2019-03-01T10:21:02.674Z,8.72
2019-03-01T10:23:33.220Z,8.66
2019-03-01T10:26:03.748Z,8.62
2019-03-01T10:28:34.775Z,8.58
2019-03-01T10:31:05.996Z,8.56
2019-03-01T10:33:36.943Z,8.53
2019-03-01T10:36:08.299Z,8.56
2019-03-01T10:38:40.783Z,8.55
2019-03-01T10:41:11.384Z,8.58
2019-03-01T10:43:41.859Z,8.61
2019-03-01T10:46:13.033Z,8.59
2019-03-01T10:48:44.149Z,8.62
2019-03-01T10:51:14.644Z,8.63
2019-03-01T10:53:45.190Z,8.62
2019-03-01T10:56:15.665Z,8.69
2019-03-01T10:58:46.159Z,8.68
2019-03-01T11:01:16.956Z,8.65
2019-03-01T11:03:47.454Z,8.67
2019-03-01T11:06:17.955Z,8.64
2019-03-01T11:08:48.807Z,8.63
2019-03-01T11:11:19.549Z,8.60
2019-03-01T11:13:50.021Z,8.61
2019-03-01T11:16:20.714Z,8.58
2019-03-01T11:18:51.493Z,8.56
2019-03-01T11:21:21.974Z,8.60
2019-03-01T11:23:52.590Z,8.64
2019-03-01T11:26:23.113Z,8.67
2019-03-01T11:28:54.879Z,8.63
2019-03-01T11:31:25.386Z,8.66
2019-03-01T11:33:56.167Z,8.68
2019-03-01T11:36:26.686Z,8.73
2019-03-01T11:38:57.566Z,8.77
2019-03-01T11:41:28.136Z,8.78
2019-03-01T11:43:58.600Z,8.75
2019-03-01T11:46:29.155Z,8.75
2019-03-01T11:48:59.631Z,8.71
2019-03-01T11:51:30.078Z,8.63
2019-03-01T11:54:00.912Z,8.69
2019-03-01T11:56:31.452Z,8.73
2019-03-01T11:59:01.953Z,8.74
2019-03-01T12:01:32.503Z,8.74
2019-03-01T12:04:02.988Z,8.77
2019-03-01T12:06:33.488Z,8.70
2019-03-01T12:09:05.271Z,8.73
2019-03-01T12:11:35.750Z,8.73
2019-03-01T12:14:06.238Z,8.77
2019-03-01T12:16:36.826Z,8.75
2019-03-01T12:19:07.311Z,8.73
2019-03-01T12:21:37.781Z,8.78
2019-03-01T12:24:08.325Z,8.73
2019-03-01T12:26:38.789Z,8.72
2019-03-01T12:29:09.565Z,8.74
2019-03-01T12:31:40.073Z,8.75
2019-03-01T12:34:10.598Z,8.73
2019-03-01T12:36:41.086Z,8.68
2019-03-01T12:39:11.644Z,8.74
2019-03-01T12:41:42.749Z,8.79
2019-03-01T12:44:13.274Z,8.70
2019-03-01T12:46:43.823Z,8.57
2019-03-01T12:49:14.297Z,8.46
2019-03-01T12:51:44.777Z,8.40
2019-03-01T12:54:15.341Z,8.24
2019-03-01T12:56:45.819Z,8.21
2019-03-01T12:59:16.578Z,8.21
2019-03-01T13:01:47.069Z,8.03
2019-03-01T13:04:18.633Z,8.03
2019-03-01T13:06:49.934Z,8.00
2019-03-01T13:09:23.401Z,7.88
2019-03-01T13:11:52.660Z,7.89
2019-03-01T13:14:23.456Z,7.97
2019-03-01T13:16:53.982Z,7.77
2019-03-01T13:19:26.141Z,7.83
2019-03-01T13:21:56.775Z,7.78
2019-03-01T13:24:27.309Z,7.84
2019-03-01T13:26:58.114Z,7.78
2019-03-01T13:29:28.888Z,7.85
2019-03-01T13:31:59.415Z,7.86
2019-03-01T13:34:30.034Z,7.92
2019-03-01T13:37:00.873Z,7.91
2019-03-01T13:39:31.754Z,7.93
2019-03-01T13:42:02.265Z,8.00
2019-03-01T13:44:32.760Z,7.99
2019-03-01T13:47:05.379Z,8.02
2019-03-01T13:49:35.631Z,8.03
2019-03-01T13:52:06.126Z,8.03
2019-03-01T13:54:36.659Z,8.05
2019-03-01T13:57:08.394Z,8.06
2019-03-01T13:59:40.392Z,7.98
2019-03-01T14:02:11.597Z,7.97
2019-03-01T14:04:42.110Z,7.97
2019-03-01T14:07:12.579Z,7.96
2019-03-01T14:09:43.206Z,7.92
2019-03-01T14:12:13.707Z,7.87
2019-03-01T14:14:44.213Z,7.95
2019-03-01T14:17:14.757Z,7.86
2019-03-01T14:19:46.218Z,7.84
2019-03-01T14:22:17.850Z,7.83
2019-03-01T14:24:48.573Z,7.83
2019-03-01T14:27:19.082Z,7.84
2019-03-01T14:29:53.600Z,7.73
2019-03-01T14:32:21.957Z,7.76
2019-03-01T14:34:52.512Z,7.67
2019-03-01T14:37:23.308Z,7.70
2019-03-01T14:39:54.141Z,7.69
2019-03-01T14:42:24.711Z,7.62
2019-03-01T14:47:37.269Z,7.58
2019-03-01T14:50:10.443Z,7.57
2019-03-01T14:53:00.117Z,7.56
2019-03-01T14:55:43.518Z,7.57
2019-03-01T14:58:58.806Z,7.49
2019-03-01T15:01:44.218Z,7.51
2019-03-01T15:04:33.894Z,7.50
2019-03-01T15:07:16.262Z,7.52
2019-03-01T15:10:07.346Z,7.43
2019-03-01T15:12:49.653Z,7.48
2019-03-01T15:18:28.962Z,7.52
2019-03-01T15:21:02.344Z,7.49
2019-03-01T15:23:32.010Z,7.51
2019-03-01T15:26:02.637Z,7.50
2019-03-01T15:28:35.643Z,7.47
2019-03-01T15:31:05.830Z,7.47
2019-03-01T15:33:36.342Z,7.43
2019-03-01T15:36:07.014Z,7.46
2019-03-01T15:38:37.916Z,7.45
2019-03-01T15:41:08.439Z,7.45
2019-03-01T15:43:39.969Z,7.51
2019-03-01T15:46:11.583Z,7.49
2019-03-01T15:48:42.775Z,7.51
2019-03-01T15:51:13.424Z,7.53
2019-03-01T15:53:43.998Z,7.48
2019-03-01T15:56:14.792Z,7.52
2019-03-01T15:58:46.527Z,7.50
2019-03-01T16:01:17.360Z,7.49
2019-03-01T16:03:47.920Z,7.48
2019-03-01T16:06:22.131Z,7.47
2019-03-01T16:08:50.856Z,7.47
2019-03-01T16:11:21.809Z,7.46
2019-03-01T16:14:11.828Z,7.50
2019-03-01T16:16:54.491Z,7.54
2019-03-01T16:19:47.031Z,7.48
2019-03-01T16:22:28.467Z,7.47
2019-03-01T16:28:27.430Z,7.48
2019-03-01T16:31:16.806Z,7.49
2019-03-01T16:34:06.528Z,7.45
2019-03-01T16:39:50.235Z,7.50
2019-03-01T16:42:38.389Z,7.45
2019-03-01T16:45:17.705Z,7.45
2019-03-01T16:51:18.295Z,7.45
2019-03-01T16:54:06.766Z,7.44
2019-03-01T16:57:15.709Z,7.34
2019-03-01T16:59:59.367Z,7.32
2019-03-01T17:02:49.003Z,7.32
2019-03-01T17:05:31.546Z,7.30
2019-03-01T17:08:40.499Z,7.26
2019-03-01T17:11:22.747Z,7.24
2019-03-01T17:14:04.574Z,7.23
2019-03-01T17:20:02.367Z,7.23
2019-03-01T17:22:52.866Z,7.22
2019-03-01T17:25:42.503Z,7.18
2019-03-01T17:28:26.538Z,7.14
2019-03-01T17:31:16.427Z,7.16
2019-03-01T17:33:58.875Z,7.14
2019-03-01T17:36:49.921Z,7.14
2019-03-01T17:39:33.223Z,7.13
2019-03-01T17:42:23.118Z,7.13
2019-03-01T17:45:03.851Z,7.10
2019-03-01T17:47:46.285Z,7.04
2019-03-01T17:50:36.213Z,6.99
2019-03-01T17:53:18.327Z,6.96
2019-03-01T17:59:11.778Z,6.93
2019-03-01T18:02:01.328Z,6.91
2019-03-01T18:04:44.015Z,6.91
2019-03-01T18:07:14.959Z,6.91
2019-03-01T18:09:45.583Z,6.93
2019-03-01T18:12:17.476Z,6.91
2019-03-01T18:14:48.864Z,6.92
2019-03-01T18:17:19.442Z,6.91
2019-03-01T18:19:49.907Z,6.93
2019-03-01T18:22:22.997Z,6.96
2019-03-01T18:24:53.295Z,6.94
2019-03-01T18:27:42.998Z,6.91
2019-03-01T18:30:32.914Z,6.93
2019-03-01T18:33:16.959Z,6.88
2019-03-01T18:36:08.074Z,6.86
2019-03-01T18:38:51.039Z,6.89
2019-03-01T18:44:28.948Z,6.86
2019-03-01T18:47:10.956Z,6.88
2019-03-01T18:50:00.667Z,6.84
2019-03-01T18:52:53.296Z,6.88
2019-03-01T18:55:34.442Z,6.88
2019-03-01T18:58:24.072Z,6.83
2019-03-01T19:01:07.771Z,6.87
2019-03-01T19:03:59.043Z,6.83
2019-03-01T19:06:41.954Z,6.80
2019-03-01T19:09:31.660Z,6.80
2019-03-01T19:12:02.637Z,6.78
2019-03-01T19:14:52.312Z,6.80
2019-03-01T19:17:42.153Z,6.83
2019-03-01T19:20:24.879Z,6.78
2019-03-01T19:23:14.628Z,6.82
2019-03-01T19:25:57.867Z,6.81
2019-03-01T19:28:48.595Z,6.88
2019-03-01T19:31:30.991Z,6.83
2019-03-01T19:34:20.908Z,6.82
2019-03-01T19:37:03.464Z,6.82
2019-03-01T19:43:00.947Z,6.78
2019-03-01T19:45:50.678Z,6.79
2019-03-01T19:48:34.439Z,6.81
2019-03-01T19:51:24.756Z,6.76
2019-03-01T19:54:08.325Z,6.79
2019-03-01T20:00:05.695Z,6.80
2019-03-01T20:02:55.303Z,6.76
2019-03-01T20:05:45.835Z,6.75
2019-03-01T20:08:29.802Z,6.73
2019-03-01T20:11:38.738Z,6.73
2019-03-01T20:14:20.494Z,6.73
2019-03-01T20:19:58.329Z,6.77
2019-03-01T20:22:50.438Z,6.71
2019-03-01T20:25:32.784Z,6.73
2019-03-01T20:28:41.591Z,6.65
2019-03-01T20:31:24.609Z,6.70
2019-03-01T20:34:06.709Z,6.72
2019-03-01T20:36:56.363Z,6.70
2019-03-01T20:39:39.353Z,6.70
2019-03-01T20:42:10.017Z,6.70
2019-03-01T20:44:59.726Z,6.68
2019-03-01T20:47:41.764Z,6.71
2019-03-01T20:50:22.864Z,6.71
2019-03-01T20:53:13.358Z,6.66
2019-03-01T20:55:57.017Z,6.70
2019-03-01T20:58:46.756Z,6.68
2019-03-01T21:01:27.829Z,6.69
2019-03-01T21:04:17.425Z,6.67
2019-03-01T21:07:00.121Z,6.66
2019-03-01T21:09:30.916Z,6.66
2019-03-01T21:12:01.919Z,6.68
2019-03-01T21:14:51.536Z,6.69
2019-03-01T21:17:32.151Z,6.71
2019-03-01T21:20:15.876Z,6.70
2019-03-01T21:23:04.857Z,6.67
2019-03-01T21:25:46.715Z,6.67
2019-03-01T21:28:36.629Z,6.69
2019-03-01T21:31:08.963Z,6.67
2019-03-01T21:33:59.343Z,6.70
2019-03-01T21:36:42.550Z,6.68
2019-03-01T21:39:32.211Z,6.68
2019-03-01T21:42:16.880Z,6.70
2019-03-01T21:45:06.397Z,6.72
2019-03-01T21:47:49.162Z,6.71
2019-03-01T21:50:19.862Z,6.69
2019-03-01T21:53:05.487Z,6.68
2019-03-01T21:55:53.780Z,6.75
2019-03-01T21:58:38.567Z,6.71
2019-03-01T22:01:27.936Z,6.74
2019-03-01T22:04:09.863Z,6.72
2019-03-01T22:10:01.328Z,6.73
2019-03-01T22:12:50.939Z,6.79
2019-03-01T22:15:32.809Z,6.80
2019-03-01T22:18:23.624Z,6.75
2019-03-01T22:21:06.120Z,6.83
2019-03-01T22:23:56.031Z,6.80
2019-03-01T22:26:38.354Z,6.83
2019-03-01T22:29:28.005Z,6.83
2019-03-01T22:32:11.370Z,6.86
2019-03-01T22:35:03.193Z,6.87
2019-03-01T22:37:44.499Z,6.88
2019-03-01T22:43:41.520Z,6.81
2019-03-01T22:49:13.166Z,6.84
2019-03-01T22:55:04.756Z,6.83
2019-03-01T22:57:47.630Z,6.84
2019-03-01T23:01:16.361Z,6.85
2019-03-01T23:04:00.534Z,6.87
2019-03-01T23:06:51.487Z,6.85
2019-03-01T23:09:34.285Z,6.90
2019-03-01T23:15:31.785Z,6.88
2019-03-01T23:21:16.316Z,6.88
2019-03-01T23:23:47.408Z,6.86
2019-03-01T23:26:56.865Z,6.85
2019-03-01T23:29:40.545Z,6.90
2019-03-01T23:32:30.136Z,6.83
2019-03-01T23:35:14.628Z,6.81
2019-03-01T23:40:51.400Z,6.81
2019-03-01T23:43:41.009Z,6.80
2019-03-01T23:46:25.650Z,6.81
2019-03-01T23:52:02.766Z,6.75
2019-03-01T23:54:47.741Z,6.74
